createdAt,value
2019-03-30T00:02:12.469Z,33.88
2019-03-30T00:04:41.928Z,35.17
2019-03-30T00:07:10.869Z,33.10
2019-03-30T00:09:39.420Z,33.75
2019-03-30T00:12:08.724Z,37.63
2019-03-30T00:14:37.302Z,31.15
2019-03-30T00:17:05.850Z,30.37
2019-03-30T00:19:35.256Z,33.13
2019-03-30T00:22:04.471Z,33.38
2019-03-30T00:24:33.020Z,32.15
2019-03-30T00:27:01.484Z,30.50
2019-03-30T00:29:29.980Z,28.07
2019-03-30T00:31:58.519Z,28.10
2019-03-30T00:34:27.005Z,25.12
2019-03-30T00:36:55.586Z,28.65
2019-03-30T00:39:24.143Z,29.32
2019-03-30T00:41:52.681Z,29.42
2019-03-30T00:44:21.268Z,29.70
2019-03-30T00:46:49.827Z,28.92
2019-03-30T00:49:18.372Z,29.18
2019-03-30T00:51:47.202Z,30.12
2019-03-30T00:54:15.787Z,28.92
2019-03-30T00:56:45.118Z,32.28
2019-03-30T00:59:13.696Z,25.75
2019-03-30T01:01:42.254Z,25.97
2019-03-30T01:04:10.795Z,24.87
2019-03-30T01:06:39.408Z,29.30
2019-03-30T01:09:08.621Z,28.00
2019-03-30T01:11:37.092Z,27.20
2019-03-30T01:14:05.661Z,30.85
2019-03-30T01:16:34.208Z,28.75
2019-03-30T01:19:02.759Z,29.07
2019-03-30T01:21:31.334Z,28.25
2019-03-30T01:23:59.808Z,29.00
2019-03-30T01:26:28.358Z,26.00
2019-03-30T01:28:57.198Z,25.82
2019-03-30T01:31:25.742Z,26.05
2019-03-30T01:33:54.280Z,25.97
2019-03-30T01:36:24.259Z,26.12
2019-03-30T01:38:52.799Z,24.57
2019-03-30T01:41:21.341Z,27.48
2019-03-30T01:43:49.847Z,26.65
2019-03-30T01:46:18.311Z,28.07
2019-03-30T01:48:47.173Z,28.00
2019-03-30T01:51:16.633Z,29.95
2019-03-30T01:53:45.172Z,27.67
2019-03-30T01:56:13.659Z,28.42
2019-03-30T01:58:42.240Z,26.45
2019-03-30T02:01:10.749Z,31.97
2019-03-30T02:03:39.298Z,31.95
2019-03-30T02:06:08.563Z,26.95
2019-03-30T02:08:37.095Z,31.40
2019-03-30T02:11:07.214Z,29.07
2019-03-30T02:13:35.798Z,28.27
2019-03-30T02:16:04.638Z,26.85
2019-03-30T02:18:33.172Z,26.70
2019-03-30T02:21:01.677Z,30.35
2019-03-30T02:23:30.231Z,28.02
2019-03-30T02:25:58.775Z,24.60
2019-03-30T02:28:27.353Z,27.20
2019-03-30T02:30:55.898Z,28.87
2019-03-30T02:33:24.464Z,30.43
2019-03-30T02:35:52.972Z,30.97
2019-03-30T02:38:21.509Z,27.60
2019-03-30T02:40:50.063Z,27.37
2019-03-30T02:43:18.647Z,29.50
2019-03-30T02:45:47.219Z,29.55
2019-03-30T02:48:15.747Z,26.93
2019-03-30T02:50:49.783Z,29.85
2019-03-30T02:53:14.509Z,28.75
2019-03-30T02:55:42.987Z,25.75
2019-03-30T02:58:11.551Z,28.55
2019-03-30T03:00:40.156Z,28.98
2019-03-30T03:03:09.579Z,27.22
2019-03-30T03:05:38.177Z,28.35
2019-03-30T03:08:06.728Z,30.43
2019-03-30T03:10:35.276Z,30.40
2019-03-30T03:13:03.917Z,35.28
2019-03-30T03:15:32.458Z,32.38
2019-03-30T03:18:01.006Z,34.38
2019-03-30T03:20:29.573Z,30.65
2019-03-30T03:22:58.121Z,31.62
2019-03-30T03:25:26.670Z,31.55
2019-03-30T03:27:55.568Z,31.10
2019-03-30T03:30:24.105Z,32.35
2019-03-30T03:32:52.649Z,33.00
2019-03-30T03:35:21.280Z,35.20
2019-03-30T03:37:49.819Z,32.53
2019-03-30T03:40:18.294Z,33.92
2019-03-30T03:42:46.900Z,32.10
2019-03-30T03:45:15.584Z,35.73
2019-03-30T03:47:44.131Z,38.42
2019-03-30T03:50:27.976Z,38.13
2019-03-30T03:55:25.080Z,37.15
2019-03-30T03:57:54.190Z,42.58
2019-03-30T04:00:22.919Z,35.10
2019-03-30T04:02:53.524Z,36.33
2019-03-30T04:05:24.420Z,37.65
2019-03-30T04:07:56.371Z,38.05
2019-03-30T04:10:27.984Z,37.67
2019-03-30T04:12:59.666Z,37.88
2019-03-30T04:15:28.379Z,37.42
2019-03-30T04:17:56.933Z,35.63
2019-03-30T04:20:25.651Z,37.83
2019-03-30T04:22:54.871Z,37.53
2019-03-30T04:25:23.803Z,36.98
2019-03-30T04:27:52.370Z,40.80
2019-03-30T04:30:20.924Z,37.15
2019-03-30T04:32:49.465Z,40.25
2019-03-30T04:35:18.050Z,36.13
2019-03-30T04:37:46.600Z,39.63
2019-03-30T04:40:15.143Z,36.60
2019-03-30T04:42:43.734Z,38.00
2019-03-30T04:45:12.636Z,34.60
2019-03-30T04:47:41.214Z,37.25
2019-03-30T04:50:10.068Z,34.23
2019-03-30T04:52:38.605Z,37.30
2019-03-30T04:55:07.371Z,32.90
2019-03-30T04:57:36.286Z,32.25
2019-03-30T05:00:09.044Z,31.50
2019-03-30T05:02:37.660Z,31.62
2019-03-30T05:05:07.872Z,32.10
2019-03-30T05:07:36.437Z,34.83
2019-03-30T05:10:06.880Z,33.28
2019-03-30T05:12:35.525Z,31.93
2019-03-30T05:15:06.112Z,31.90
2019-03-30T05:17:46.701Z,33.05
2019-03-30T05:20:06.835Z,37.93
2019-03-30T05:22:35.575Z,32.03
2019-03-30T05:25:04.793Z,32.40
2019-03-30T05:27:33.370Z,32.90
2019-03-30T05:30:01.844Z,32.63
2019-03-30T05:32:30.400Z,31.97
2019-03-30T05:34:58.960Z,29.35
2019-03-30T05:37:27.515Z,32.15
2019-03-30T05:39:56.059Z,31.35
2019-03-30T05:42:24.638Z,33.50
2019-03-30T05:44:53.110Z,31.07
2019-03-30T05:47:21.712Z,33.08
2019-03-30T05:49:50.313Z,35.65
2019-03-30T05:52:26.328Z,38.17
2019-03-30T05:54:49.040Z,32.83
2019-03-30T05:57:17.554Z,34.48
2019-03-30T05:59:46.134Z,32.95
2019-03-30T06:02:14.675Z,35.03
2019-03-30T06:04:43.239Z,37.45
2019-03-30T06:07:11.724Z,32.95
2019-03-30T06:09:40.277Z,34.75
2019-03-30T06:12:08.858Z,29.60
2019-03-30T06:14:37.422Z,36.15
2019-03-30T06:17:05.983Z,33.48
2019-03-30T06:19:34.574Z,34.50
2019-03-30T06:22:03.123Z,34.53
2019-03-30T06:24:31.684Z,35.68
2019-03-30T06:27:00.275Z,31.97
2019-03-30T06:29:28.823Z,38.08
2019-03-30T06:31:57.378Z,35.63
2019-03-30T06:34:26.346Z,34.30
2019-03-30T06:36:54.902Z,36.05
2019-03-30T06:39:23.458Z,37.05
2019-03-30T06:41:52.040Z,37.42
2019-03-30T06:44:21.519Z,36.42
2019-03-30T06:46:50.077Z,40.00
2019-03-30T06:49:18.688Z,39.92
2019-03-30T06:51:47.161Z,41.15
2019-03-30T06:54:15.647Z,39.25
2019-03-30T06:56:44.234Z,43.08
2019-03-30T06:59:18.148Z,40.28
2019-03-30T07:01:47.327Z,46.95
2019-03-30T07:04:15.896Z,48.98
2019-03-30T07:06:44.984Z,60.12
2019-03-30T07:09:14.004Z,61.18
2019-03-30T07:11:44.911Z,63.60
2019-03-30T07:14:13.570Z,65.65
2019-03-30T07:16:42.282Z,73.85
2019-03-30T07:19:12.168Z,97.65
2019-03-30T07:21:47.138Z,112.50
2019-03-30T07:24:15.703Z,133.07
2019-03-30T07:26:44.255Z,149.87
2019-03-30T07:29:12.750Z,139.37
2019-03-30T07:31:41.264Z,143.37
2019-03-30T07:34:09.743Z,133.25
2019-03-30T07:36:38.229Z,124.75
2019-03-30T07:39:06.895Z,150.57
2019-03-30T07:41:35.431Z,154.95
2019-03-30T07:44:04.067Z,167.00
2019-03-30T07:46:32.685Z,151.02
2019-03-30T07:49:01.227Z,165.68
2019-03-30T07:51:33.162Z,176.90
2019-03-30T07:54:00.035Z,155.03
2019-03-30T07:56:28.574Z,122.60
2019-03-30T07:58:57.069Z,119.67
2019-03-30T08:01:25.963Z,137.65
2019-03-30T08:03:54.458Z,137.25
2019-03-30T08:06:23.078Z,121.82
2019-03-30T08:08:51.671Z,103.00
2019-03-30T08:11:20.296Z,101.27
2019-03-30T08:13:48.960Z,107.35
2019-03-30T08:16:17.532Z,117.42
2019-03-30T08:18:46.084Z,129.78
2019-03-30T08:21:14.656Z,110.30
2019-03-30T08:23:43.232Z,114.60
2019-03-30T08:26:11.783Z,124.05
2019-03-30T08:28:40.331Z,170.97
2019-03-30T08:31:08.936Z,183.25
2019-03-30T08:33:37.412Z,187.43
2019-03-30T08:36:06.037Z,200.55
2019-03-30T08:38:36.141Z,76.62
2019-03-30T08:41:04.693Z,63.92
2019-03-30T08:43:33.438Z,62.62
2019-03-30T08:46:02.040Z,57.23
2019-03-30T08:48:30.507Z,50.63
2019-03-30T08:50:59.124Z,43.38
2019-03-30T08:53:28.237Z,42.50
2019-03-30T08:55:56.804Z,33.35
2019-03-30T08:58:25.358Z,25.88
2019-03-30T09:00:53.947Z,27.85
2019-03-30T09:03:22.504Z,26.05
2019-03-30T09:05:51.043Z,27.02
2019-03-30T09:08:19.709Z,24.45
2019-03-30T09:10:48.255Z,26.87
2019-03-30T09:13:16.818Z,26.20
2019-03-30T09:15:46.956Z,23.35
2019-03-30T09:18:15.523Z,26.15
2019-03-30T09:20:44.064Z,26.10
2019-03-30T09:23:12.653Z,28.38
2019-03-30T09:25:41.266Z,27.52
2019-03-30T09:28:09.746Z,24.95
2019-03-30T09:30:38.394Z,27.65
2019-03-30T09:33:06.953Z,25.40
2019-03-30T09:35:35.504Z,27.87
2019-03-30T09:38:04.531Z,26.23
2019-03-30T09:40:33.089Z,32.17
2019-03-30T09:43:01.652Z,27.55
2019-03-30T09:45:30.319Z,29.02
2019-03-30T09:47:58.878Z,30.88
2019-03-30T09:50:27.436Z,28.92
2019-03-30T09:52:56.021Z,27.17
2019-03-30T09:55:27.184Z,29.82
2019-03-30T09:57:54.781Z,28.80
2019-03-30T10:00:23.370Z,26.00
2019-03-30T10:02:51.921Z,27.42
2019-03-30T10:05:20.484Z,30.35
2019-03-30T10:07:49.079Z,27.95
2019-03-30T10:10:17.633Z,29.40
2019-03-30T10:12:46.193Z,29.60
2019-03-30T10:15:15.222Z,32.05
2019-03-30T10:17:43.772Z,32.00
2019-03-30T10:20:13.074Z,32.63
2019-03-30T10:22:42.322Z,31.48
2019-03-30T10:25:11.443Z,33.80
2019-03-30T10:27:39.910Z,30.37
2019-03-30T10:30:09.940Z,35.20
2019-03-30T10:32:38.422Z,33.15
2019-03-30T10:35:07.446Z,34.27
2019-03-30T10:37:36.028Z,33.78
2019-03-30T10:40:09.210Z,32.88
2019-03-30T10:42:37.759Z,36.20
2019-03-30T10:45:08.521Z,33.65
2019-03-30T10:47:37.085Z,40.90
2019-03-30T10:50:09.568Z,35.28
2019-03-30T10:52:38.135Z,35.70
2019-03-30T10:55:07.529Z,32.48
2019-03-30T10:57:36.085Z,31.23
2019-03-30T11:00:07.177Z,32.17
2019-03-30T11:02:35.658Z,35.58
2019-03-30T11:05:06.048Z,34.67
2019-03-30T11:07:35.105Z,32.03
2019-03-30T11:10:05.871Z,37.17
2019-03-30T11:12:34.420Z,38.65
2019-03-30T11:15:03.622Z,34.45
2019-03-30T11:17:32.110Z,36.63
2019-03-30T11:20:00.669Z,33.63
2019-03-30T11:22:29.273Z,34.40
2019-03-30T11:25:07.179Z,31.30
2019-03-30T11:27:28.012Z,32.10
2019-03-30T11:29:56.600Z,32.73
2019-03-30T11:32:25.084Z,32.88
2019-03-30T11:34:53.650Z,34.08
2019-03-30T11:37:22.219Z,34.30
2019-03-30T11:39:50.699Z,34.18
2019-03-30T11:42:19.385Z,31.82
2019-03-30T11:44:47.986Z,31.52
2019-03-30T11:47:16.545Z,32.70
2019-03-30T11:49:45.131Z,31.17
2019-03-30T11:52:13.720Z,33.75
2019-03-30T11:54:42.263Z,34.27
2019-03-30T11:57:10.914Z,30.35
2019-03-30T11:59:39.513Z,31.25
2019-03-30T12:02:08.080Z,29.90
2019-03-30T12:04:36.624Z,32.48
2019-03-30T12:07:05.284Z,29.87
2019-03-30T12:09:33.844Z,31.57
2019-03-30T12:12:02.459Z,31.00
2019-03-30T12:14:31.062Z,30.00
2019-03-30T12:16:59.612Z,31.45
2019-03-30T12:19:28.170Z,26.75
2019-03-30T12:21:56.758Z,32.65
2019-03-30T12:24:25.354Z,32.28
2019-03-30T12:26:55.478Z,33.98
2019-03-30T12:29:24.093Z,37.58
2019-03-30T12:31:52.645Z,31.17
2019-03-30T12:34:21.206Z,29.70
2019-03-30T12:36:49.799Z,32.15
2019-03-30T12:39:18.290Z,28.40
2019-03-30T12:41:46.835Z,32.98
2019-03-30T12:44:15.431Z,33.60
2019-03-30T12:46:43.986Z,30.32
2019-03-30T12:49:12.548Z,30.92
2019-03-30T12:51:41.174Z,31.65
2019-03-30T12:54:09.732Z,33.85
2019-03-30T12:56:38.210Z,32.40
2019-03-30T12:59:06.787Z,33.83
2019-03-30T13:01:35.335Z,31.68
2019-03-30T13:04:04.195Z,31.80
2019-03-30T13:06:32.779Z,34.23
2019-03-30T13:09:01.329Z,34.25
2019-03-30T13:11:29.872Z,37.15
2019-03-30T13:13:58.685Z,36.68
2019-03-30T13:16:27.226Z,34.03
2019-03-30T13:18:55.783Z,31.52
2019-03-30T13:21:24.618Z,38.10
2019-03-30T13:23:53.169Z,34.05
2019-03-30T13:26:21.743Z,34.35
2019-03-30T13:28:50.319Z,32.45
2019-03-30T13:31:18.855Z,32.48
2019-03-30T13:33:47.329Z,35.70
2019-03-30T13:36:16.193Z,34.25
2019-03-30T13:38:44.745Z,34.80
2019-03-30T13:41:14.347Z,35.73
2019-03-30T13:43:43.197Z,35.38
2019-03-30T13:46:11.737Z,38.02
2019-03-30T13:48:40.293Z,37.73
2019-03-30T13:51:08.889Z,40.05
2019-03-30T13:53:37.440Z,38.33
2019-03-30T13:56:16.721Z,40.35
2019-03-30T13:58:36.623Z,39.15
2019-03-30T14:01:05.514Z,39.35
2019-03-30T14:03:34.049Z,41.37
2019-03-30T14:06:02.640Z,39.38
2019-03-30T14:08:31.175Z,43.00
2019-03-30T14:10:59.735Z,43.78
2019-03-30T14:13:28.337Z,40.45
2019-03-30T14:15:56.889Z,40.52
2019-03-30T14:18:25.459Z,41.95
2019-03-30T14:20:54.047Z,41.42
2019-03-30T14:23:22.609Z,44.70
2019-03-30T14:25:51.157Z,44.95
2019-03-30T14:28:20.236Z,44.33
2019-03-30T14:30:48.803Z,46.53
2019-03-30T14:33:17.351Z,47.43
2019-03-30T14:35:45.846Z,47.78
2019-03-30T14:38:14.388Z,46.40
2019-03-30T14:40:42.870Z,52.03
2019-03-30T14:43:12.130Z,48.98
2019-03-30T14:45:40.676Z,58.08
2019-03-30T14:48:09.240Z,56.05
2019-03-30T14:50:37.883Z,52.50
2019-03-30T14:53:06.384Z,60.35
2019-03-30T14:55:34.912Z,57.30
2019-03-30T14:58:03.596Z,58.13
2019-03-30T15:00:32.245Z,59.95
2019-03-30T15:03:01.009Z,60.60
2019-03-30T15:05:29.609Z,55.20
2019-03-30T15:07:59.031Z,57.80
2019-03-30T15:10:27.578Z,60.50
2019-03-30T15:12:56.182Z,61.73
2019-03-30T15:15:24.727Z,62.67
2019-03-30T15:17:53.280Z,62.93
2019-03-30T15:20:21.854Z,63.45
2019-03-30T15:22:50.452Z,66.28
2019-03-30T15:25:18.955Z,63.13
2019-03-30T15:27:47.602Z,63.83
2019-03-30T15:30:16.330Z,64.53
2019-03-30T15:32:44.942Z,66.10
2019-03-30T15:35:13.947Z,68.50
2019-03-30T15:37:42.503Z,69.67
2019-03-30T15:40:12.094Z,65.75
2019-03-30T15:42:40.833Z,73.85
2019-03-30T15:45:10.986Z,65.28
2019-03-30T15:47:39.906Z,69.10
2019-03-30T15:50:09.567Z,66.37
2019-03-30T15:52:38.109Z,67.42
2019-03-30T15:55:09.950Z,68.40
2019-03-30T15:57:38.516Z,73.90
2019-03-30T16:00:10.980Z,66.33
2019-03-30T16:02:39.603Z,66.57
2019-03-30T16:05:08.669Z,68.85
2019-03-30T16:07:37.222Z,72.82
2019-03-30T16:10:06.614Z,65.50
2019-03-30T16:12:35.199Z,70.85
2019-03-30T16:15:08.042Z,71.62
2019-03-30T16:17:36.594Z,68.83
2019-03-30T16:20:09.644Z,69.32
2019-03-30T16:22:39.736Z,66.60
2019-03-30T16:25:08.770Z,65.35
2019-03-30T16:27:39.238Z,66.47
2019-03-30T16:30:08.800Z,68.28
2019-03-30T16:32:37.356Z,69.97
2019-03-30T16:35:06.401Z,67.25
2019-03-30T16:37:34.957Z,66.72
2019-03-30T16:40:04.750Z,67.55
2019-03-30T16:42:33.330Z,67.30
2019-03-30T16:45:01.890Z,68.22
2019-03-30T16:47:30.522Z,68.10
2019-03-30T16:49:59.090Z,67.92
2019-03-30T16:52:27.648Z,73.65
2019-03-30T16:54:56.183Z,68.30
2019-03-30T16:57:24.700Z,70.20
2019-03-30T16:59:53.317Z,69.17
2019-03-30T17:02:21.901Z,75.52
2019-03-30T17:04:50.500Z,74.85
2019-03-30T17:07:19.056Z,77.70
2019-03-30T17:09:47.666Z,79.05
2019-03-30T17:12:16.238Z,75.17
2019-03-30T17:14:44.790Z,76.80
2019-03-30T17:17:13.334Z,79.53
2019-03-30T17:19:41.993Z,74.90
2019-03-30T17:22:10.544Z,79.47
2019-03-30T17:24:39.100Z,78.70
2019-03-30T17:27:09.191Z,80.03
2019-03-30T17:29:37.672Z,74.70
2019-03-30T17:32:06.294Z,73.33
2019-03-30T17:34:34.878Z,76.92
2019-03-30T17:37:03.517Z,76.45
2019-03-30T17:39:32.072Z,81.17
2019-03-30T17:42:01.044Z,72.22
2019-03-30T17:44:29.518Z,77.40
2019-03-30T17:46:58.291Z,75.55
2019-03-30T17:49:26.885Z,80.85
2019-03-30T17:51:55.432Z,75.60
2019-03-30T17:54:24.088Z,77.55
2019-03-30T17:56:52.600Z,77.47
2019-03-30T17:59:23.650Z,82.90
2019-03-30T18:01:51.485Z,80.00
2019-03-30T18:04:20.046Z,80.50
2019-03-30T18:06:48.598Z,79.87
2019-03-30T18:09:17.162Z,89.85
2019-03-30T18:11:45.756Z,74.90
2019-03-30T18:14:14.307Z,79.25
2019-03-30T18:16:42.779Z,78.72
2019-03-30T18:19:11.380Z,82.62
2019-03-30T18:21:39.929Z,88.03
2019-03-30T18:24:08.730Z,88.67
2019-03-30T18:26:37.328Z,86.80
2019-03-30T18:29:07.572Z,89.58
2019-03-30T18:31:36.358Z,90.22
2019-03-30T18:34:04.929Z,87.50
2019-03-30T18:36:35.428Z,92.12
2019-03-30T18:39:09.773Z,98.80
2019-03-30T18:41:36.546Z,99.07
2019-03-30T18:44:05.030Z,93.22
2019-03-30T18:46:33.599Z,98.70
2019-03-30T18:49:02.149Z,90.67
2019-03-30T18:51:30.694Z,91.10
2019-03-30T18:53:59.315Z,92.37
2019-03-30T18:56:29.271Z,93.30
2019-03-30T18:58:57.746Z,98.33
2019-03-30T19:01:26.328Z,102.65
2019-03-30T19:03:54.952Z,105.20
2019-03-30T19:06:23.566Z,99.85
2019-03-30T19:08:52.132Z,99.47
2019-03-30T19:11:20.906Z,101.85
2019-03-30T19:13:51.431Z,102.38
2019-03-30T19:16:19.647Z,97.78
2019-03-30T19:18:48.179Z,95.77
2019-03-30T19:21:16.880Z,107.83
2019-03-30T19:23:45.680Z,98.70
2019-03-30T19:26:14.363Z,100.62
2019-03-30T19:28:55.610Z,102.12
2019-03-30T19:31:13.521Z,109.17
2019-03-30T19:33:42.509Z,97.50
2019-03-30T19:36:11.012Z,99.62
2019-03-30T19:38:39.872Z,101.12
2019-03-30T19:41:08.867Z,106.43
2019-03-30T19:43:37.431Z,101.45
2019-03-30T19:46:06.450Z,100.55
2019-03-30T19:48:37.097Z,102.65
2019-03-30T19:51:06.033Z,99.75
2019-03-30T19:53:34.590Z,102.67
2019-03-30T19:56:03.954Z,103.80
2019-03-30T19:58:32.552Z,103.10
2019-03-30T20:01:01.303Z,103.85
2019-03-30T20:03:30.322Z,97.95
2019-03-30T20:05:59.322Z,109.90
2019-03-30T20:08:27.897Z,104.38
2019-03-30T20:10:56.606Z,98.95
2019-03-30T20:13:25.684Z,96.97
2019-03-30T20:15:54.679Z,98.25
2019-03-30T20:18:23.355Z,99.05
2019-03-30T20:20:52.040Z,99.30
2019-03-30T20:23:20.617Z,103.95
2019-03-30T20:25:49.214Z,101.67
2019-03-30T20:28:32.660Z,103.00
2019-03-30T20:31:01.277Z,103.45
2019-03-30T20:33:29.910Z,97.57
2019-03-30T20:35:58.484Z,106.05
2019-03-30T20:38:27.071Z,101.87
2019-03-30T20:40:55.655Z,110.90
2019-03-30T20:43:24.219Z,110.95
2019-03-30T20:45:53.186Z,111.85
2019-03-30T20:48:21.757Z,110.42
2019-03-30T20:50:50.331Z,103.12
2019-03-30T20:53:18.948Z,112.00
2019-03-30T20:55:47.511Z,105.85
2019-03-30T20:58:16.102Z,105.87
2019-03-30T21:00:44.971Z,106.25
2019-03-30T21:03:13.596Z,108.90
2019-03-30T21:05:42.163Z,105.37
2019-03-30T21:08:10.764Z,105.05
2019-03-30T21:10:39.339Z,108.87
2019-03-30T21:13:07.899Z,113.28
2019-03-30T21:15:36.518Z,108.30
2019-03-30T21:18:05.084Z,114.60
2019-03-30T21:20:33.726Z,124.47
2019-03-30T21:23:02.387Z,115.80
2019-03-30T21:25:30.993Z,122.67
2019-03-30T21:27:59.560Z,127.65
2019-03-30T21:30:28.158Z,124.33
2019-03-30T21:32:56.717Z,145.95
2019-03-30T21:35:25.294Z,142.90
2019-03-30T21:37:53.887Z,135.88
2019-03-30T21:40:22.465Z,139.15
2019-03-30T21:42:51.026Z,135.80
2019-03-30T21:45:19.695Z,134.18
2019-03-30T21:47:48.291Z,135.93
2019-03-30T21:50:18.330Z,139.05
2019-03-30T21:52:46.946Z,146.32
2019-03-30T21:55:15.516Z,135.48
2019-03-30T21:57:44.084Z,138.55
2019-03-30T22:00:14.292Z,133.70
2019-03-30T22:02:42.867Z,138.77
2019-03-30T22:05:13.043Z,131.90
2019-03-30T22:07:41.820Z,138.88
2019-03-30T22:10:13.466Z,130.72
2019-03-30T22:12:42.988Z,130.97
2019-03-30T22:15:13.600Z,128.25
2019-03-30T22:17:42.170Z,120.82
2019-03-30T22:20:10.883Z,125.60
2019-03-30T22:22:39.485Z,132.30
2019-03-30T22:25:08.130Z,128.90
2019-03-30T22:27:36.768Z,127.02
2019-03-30T22:30:23.610Z,126.90
2019-03-30T22:32:40.310Z,125.70
2019-03-30T22:35:09.151Z,115.95
2019-03-30T22:37:37.817Z,129.97
2019-03-30T22:40:08.331Z,124.47
2019-03-30T22:42:36.968Z,127.97
2019-03-30T22:45:06.611Z,127.30
2019-03-30T22:47:35.190Z,126.40
2019-03-30T22:50:05.957Z,119.13
2019-03-30T22:52:35.151Z,124.60
2019-03-30T22:55:04.812Z,132.25
2019-03-30T22:57:33.378Z,125.53
2019-03-30T23:00:01.976Z,122.25
2019-03-30T23:02:30.550Z,122.37
2019-03-30T23:04:59.115Z,122.78
2019-03-30T23:07:27.790Z,127.70
2019-03-30T23:09:56.435Z,115.92
2019-03-30T23:12:24.961Z,120.77
2019-03-30T23:14:53.574Z,127.67
2019-03-30T23:17:22.153Z,131.47
2019-03-30T23:19:52.001Z,136.00
2019-03-30T23:22:20.531Z,122.10
2019-03-30T23:24:49.212Z,125.33
2019-03-30T23:27:17.882Z,130.57
2019-03-30T23:29:46.453Z,125.90
2019-03-30T23:32:15.106Z,128.62
2019-03-30T23:34:45.273Z,128.53
2019-03-30T23:37:14.207Z,126.90
2019-03-30T23:39:42.949Z,124.85
2019-03-30T23:42:11.512Z,122.70
2019-03-30T23:44:40.122Z,134.80
2019-03-30T23:47:08.692Z,127.80
2019-03-30T23:49:37.357Z,131.85
2019-03-30T23:52:06.297Z,124.95
2019-03-30T23:54:34.863Z,131.07
2019-03-30T23:57:03.493Z,122.20
2019-03-30T23:59:32.101Z,121.20
